Terminal Aerodrome Forecast
Issued by NWS

Home | Current Version | Previous Version | Text Only | Print | Product List | Glossary On
Versions: 1 2 3 4 5 6 7 8 9 10 11 12 13 14 15 16
000
FTUS42 TJSJ 292142 AAA
TAFISX
TAF AMD
TISX 292142Z 2922/3018 07012KT P6SM SCT030
     FM300000 07010KT P6SM VCSH SCT025
     FM301300 11015G23KT P6SM VCSH SCT026 SCT035=

USA.gov is the U.S. government's official web portal to all federal, state and local government web resources and services.